sensor_id;sensor_type;location;lat;lon;timestamp;pressure;altitude;pressure_sealevel;temperature
58929;BMP180;44713;53.378;10.022;2023-03-01T00:01:29;102915.00;;;-1.60
58929;BMP180;44713;53.378;10.022;2023-03-01T00:03:56;102920.00;;;-1.60
58929;BMP180;44713;53.378;10.022;2023-03-01T00:06:22;102913.00;;;-1.60
58929;BMP180;44713;53.378;10.022;2023-03-01T00:08:48;102912.00;;;-1.60
58929;BMP180;44713;53.378;10.022;2023-03-01T00:11:19;102920.00;;;-1.60
58929;BMP180;44713;53.378;10.022;2023-03-01T00:13:47;102913.00;;;-1.60
58929;BMP180;44713;53.378;10.022;2023-03-01T00:16:15;102916.00;;;-1.60
58929;BMP180;44713;53.378;10.022;2023-03-01T00:18:41;102904.00;;;-1.60
58929;BMP180;44713;53.378;10.022;2023-03-01T00:21:06;102903.00;;;-1.60
58929;BMP180;44713;53.378;10.022;2023-03-01T00:23:34;102904.00;;;-1.60
58929;BMP180;44713;53.378;10.022;2023-03-01T00:25:59;102905.00;;;-1.60
58929;BMP180;44713;53.378;10.022;2023-03-01T00:28:25;102906.00;;;-1.60
58929;BMP180;44713;53.378;10.022;2023-03-01T00:30:50;102901.00;;;-1.80
58929;BMP180;44713;53.378;10.022;2023-03-01T00:33:16;102905.00;;;-1.80
58929;BMP180;44713;53.378;10.022;2023-03-01T00:35:41;102902.00;;;-1.80
58929;BMP180;44713;53.378;10.022;2023-03-01T00:38:07;102895.00;;;-1.80
58929;BMP180;44713;53.378;10.022;2023-03-01T00:40:34;102911.00;;;-1.70
58929;BMP180;44713;53.378;10.022;2023-03-01T00:43:00;102899.00;;;-1.80
58929;BMP180;44713;53.378;10.022;2023-03-01T00:45:26;102908.00;;;-1.80
58929;BMP180;44713;53.378;10.022;2023-03-01T00:47:52;102899.00;;;-1.70
58929;BMP180;44713;53.378;10.022;2023-03-01T00:50:18;102899.00;;;-1.80
58929;BMP180;44713;53.378;10.022;2023-03-01T00:52:44;102895.00;;;-1.80
58929;BMP180;44713;53.378;10.022;2023-03-01T00:55:09;102899.00;;;-1.80
58929;BMP180;44713;53.378;10.022;2023-03-01T00:57:35;102900.00;;;-2.10
58929;BMP180;44713;53.378;10.022;2023-03-01T01:00:01;102900.00;;;-2.10
58929;BMP180;44713;53.378;10.022;2023-03-01T01:02:26;102889.00;;;-2.10
58929;BMP180;44713;53.378;10.022;2023-03-01T01:04:52;102906.00;;;-2.00
58929;BMP180;44713;53.378;10.022;2023-03-01T01:07:17;102897.00;;;-2.00
58929;BMP180;44713;53.378;10.022;2023-03-01T01:09:45;102905.00;;;-1.90
58929;BMP180;44713;53.378;10.022;2023-03-01T01:12:10;102902.00;;;-1.90
58929;BMP180;44713;53.378;10.022;2023-03-01T01:14:36;102891.00;;;-1.90
58929;BMP180;44713;53.378;10.022;2023-03-01T01:17:01;102888.00;;;-2.00
58929;BMP180;44713;53.378;10.022;2023-03-01T01:19:26;102878.00;;;-2.10
58929;BMP180;44713;53.378;10.022;2023-03-01T01:21:53;102881.00;;;-2.20
58929;BMP180;44713;53.378;10.022;2023-03-01T01:24:18;102880.00;;;-2.20
58929;BMP180;44713;53.378;10.022;2023-03-01T01:26:44;102885.00;;;-2.20
58929;BMP180;44713;53.378;10.022;2023-03-01T01:29:10;102877.00;;;-2.10
58929;BMP180;44713;53.378;10.022;2023-03-01T01:31:38;102889.00;;;-2.10
58929;BMP180;44713;53.378;10.022;2023-03-01T01:34:07;102872.00;;;-2.10
58929;BMP180;44713;53.378;10.022;2023-03-01T01:36:34;102868.00;;;-2.10
58929;BMP180;44713;53.378;10.022;2023-03-01T01:39:00;102879.00;;;-2.10
58929;BMP180;44713;53.378;10.022;2023-03-01T01:41:27;102867.00;;;-2.10
58929;BMP180;44713;53.378;10.022;2023-03-01T01:49:31;102859.00;;;-2.20
58929;BMP180;44713;53.378;10.022;2023-03-01T01:51:59;102848.00;;;-2.30
58929;BMP180;44713;53.378;10.022;2023-03-01T01:54:36;102855.00;;;-2.50
58929;BMP180;44713;53.378;10.022;2023-03-01T01:57:06;102845.00;;;-2.50
58929;BMP180;44713;53.378;10.022;2023-03-01T01:59:33;102846.00;;;-2.40
58929;BMP180;44713;53.378;10.022;2023-03-01T02:02:02;102845.00;;;-2.40
58929;BMP180;44713;53.378;10.022;2023-03-01T02:04:29;102839.00;;;-2.40
58929;BMP180;44713;53.378;10.022;2023-03-01T02:07:01;102843.00;;;-2.40
58929;BMP180;44713;53.378;10.022;2023-03-01T02:09:30;102838.00;;;-2.50
58929;BMP180;44713;53.378;10.022;2023-03-01T02:11:57;102840.00;;;-2.40
58929;BMP180;44713;53.378;10.022;2023-03-01T02:14:22;102837.00;;;-2.40
58929;BMP180;44713;53.378;10.022;2023-03-01T02:16:48;102831.00;;;-2.40
58929;BMP180;44713;53.378;10.022;2023-03-01T02:19:24;102839.00;;;-2.40
58929;BMP180;44713;53.378;10.022;2023-03-01T02:22:03;102841.00;;;-2.30
58929;BMP180;44713;53.378;10.022;2023-03-01T02:24:42;102829.00;;;-2.30
58929;BMP180;44713;53.378;10.022;2023-03-01T02:27:11;102843.00;;;-2.40
58929;BMP180;44713;53.378;10.022;2023-03-01T02:29:37;102830.00;;;-2.40
58929;BMP180;44713;53.378;10.022;2023-03-01T02:32:03;102831.00;;;-2.40
58929;BMP180;44713;53.378;10.022;2023-03-01T02:34:30;102829.00;;;-2.50
58929;BMP180;44713;53.378;10.022;2023-03-01T02:37:10;102828.00;;;-2.50
58929;BMP180;44713;53.378;10.022;2023-03-01T02:39:44;102832.00;;;-2.50
58929;BMP180;44713;53.378;10.022;2023-03-01T02:42:14;102833.00;;;-2.40
58929;BMP180;44713;53.378;10.022;2023-03-01T02:44:40;102843.00;;;-2.40
58929;BMP180;44713;53.378;10.022;2023-03-01T02:47:06;102829.00;;;-2.50
58929;BMP180;44713;53.378;10.022;2023-03-01T02:49:34;102836.00;;;-2.50
58929;BMP180;44713;53.378;10.022;2023-03-01T02:55:08;102829.00;;;-2.50
58929;BMP180;44713;53.378;10.022;2023-03-01T02:57:35;102827.00;;;-2.60
58929;BMP180;44713;53.378;10.022;2023-03-01T03:00:06;102835.00;;;-2.40
58929;BMP180;44713;53.378;10.022;2023-03-01T03:02:35;102834.00;;;-2.40
58929;BMP180;44713;53.378;10.022;2023-03-01T03:05:19;102816.00;;;-2.50
58929;BMP180;44713;53.378;10.022;2023-03-01T03:07:47;102816.00;;;-2.60
58929;BMP180;44713;53.378;10.022;2023-03-01T03:10:24;102812.00;;;-2.50
58929;BMP180;44713;53.378;10.022;2023-03-01T03:12:55;102821.00;;;-2.50
58929;BMP180;44713;53.378;10.022;2023-03-01T03:15:21;102812.00;;;-2.60
58929;BMP180;44713;53.378;10.022;2023-03-01T03:17:47;102815.00;;;-2.60
58929;BMP180;44713;53.378;10.022;2023-03-01T03:20:16;102809.00;;;-2.60
58929;BMP180;44713;53.378;10.022;2023-03-01T03:22:45;102810.00;;;-2.70
58929;BMP180;44713;53.378;10.022;2023-03-01T03:25:11;102813.00;;;-2.60
58929;BMP180;44713;53.378;10.022;2023-03-01T03:27:38;102818.00;;;-2.60
58929;BMP180;44713;53.378;10.022;2023-03-01T03:30:05;102817.00;;;-2.60
58929;BMP180;44713;53.378;10.022;2023-03-01T03:32:37;102802.00;;;-2.60
58929;BMP180;44713;53.378;10.022;2023-03-01T03:35:04;102801.00;;;-2.60
58929;BMP180;44713;53.378;10.022;2023-03-01T03:37:39;102793.00;;;-2.60
58929;BMP180;44713;53.378;10.022;2023-03-01T03:40:23;102800.00;;;-2.60
58929;BMP180;44713;53.378;10.022;2023-03-01T03:42:48;102793.00;;;-2.80
58929;BMP180;44713;53.378;10.022;2023-03-01T03:45:15;102787.00;;;-2.80
58929;BMP180;44713;53.378;10.022;2023-03-01T03:47:41;102789.00;;;-2.80
58929;BMP180;44713;53.378;10.022;2023-03-01T03:50:07;102794.00;;;-2.70
58929;BMP180;44713;53.378;10.022;2023-03-01T03:52:33;102802.00;;;-2.70
58929;BMP180;44713;53.378;10.022;2023-03-01T03:54:58;102797.00;;;-2.80
58929;BMP180;44713;53.378;10.022;2023-03-01T03:57:23;102792.00;;;-2.70
58929;BMP180;44713;53.378;10.022;2023-03-01T03:59:49;102798.00;;;-2.70
58929;BMP180;44713;53.378;10.022;2023-03-01T04:02:14;102798.00;;;-2.60
58929;BMP180;44713;53.378;10.022;2023-03-01T04:04:49;102799.00;;;-2.60
58929;BMP180;44713;53.378;10.022;2023-03-01T04:07:16;102793.00;;;-2.60
58929;BMP180;44713;53.378;10.022;2023-03-01T04:09:42;102790.00;;;-2.60
58929;BMP180;44713;53.378;10.022;2023-03-01T04:12:08;102789.00;;;-2.60
58929;BMP180;44713;53.378;10.022;2023-03-01T04:14:33;102791.00;;;-2.60
58929;BMP180;44713;53.378;10.022;2023-03-01T04:16:59;102781.00;;;-2.50
58929;BMP180;44713;53.378;10.022;2023-03-01T04:19:24;102776.00;;;-2.50
58929;BMP180;44713;53.378;10.022;2023-03-01T04:21:49;102777.00;;;-2.40
58929;BMP180;44713;53.378;10.022;2023-03-01T04:24:15;102768.00;;;-2.30
58929;BMP180;44713;53.378;10.022;2023-03-01T04:26:40;102768.00;;;-2.30
58929;BMP180;44713;53.378;10.022;2023-03-01T04:29:06;102775.00;;;-2.30
58929;BMP180;44713;53.378;10.022;2023-03-01T04:31:31;102776.00;;;-2.20
58929;BMP180;44713;53.378;10.022;2023-03-01T04:33:57;102771.00;;;-2.20
58929;BMP180;44713;53.378;10.022;2023-03-01T04:36:24;102775.00;;;-2.10
58929;BMP180;44713;53.378;10.022;2023-03-01T04:38:51;102778.00;;;-2.10
58929;BMP180;44713;53.378;10.022;2023-03-01T04:41:18;102768.00;;;-2.10
58929;BMP180;44713;53.378;10.022;2023-03-01T04:43:44;102764.00;;;-2.10
58929;BMP180;44713;53.378;10.022;2023-03-01T04:46:12;102765.00;;;-2.10
58929;BMP180;44713;53.378;10.022;2023-03-01T04:48:39;102773.00;;;-2.10
58929;BMP180;44713;53.378;10.022;2023-03-01T04:51:06;102767.00;;;-2.00
58929;BMP180;44713;53.378;10.022;2023-03-01T04:53:33;102761.00;;;-2.00
58929;BMP180;44713;53.378;10.022;2023-03-01T04:55:59;102768.00;;;-1.90
58929;BMP180;44713;53.378;10.022;2023-03-01T04:58:26;102766.00;;;-1.90
58929;BMP180;44713;53.378;10.022;2023-03-01T05:00:52;102774.00;;;-1.90
58929;BMP180;44713;53.378;10.022;2023-03-01T05:03:18;102764.00;;;-1.90
58929;BMP180;44713;53.378;10.022;2023-03-01T05:05:46;102769.00;;;-1.80
58929;BMP180;44713;53.378;10.022;2023-03-01T05:08:12;102768.00;;;-1.80
58929;BMP180;44713;53.378;10.022;2023-03-01T05:10:52;102767.00;;;-1.80
58929;BMP180;44713;53.378;10.022;2023-03-01T05:13:19;102765.00;;;-1.70
58929;BMP180;44713;53.378;10.022;2023-03-01T05:15:55;102760.00;;;-1.70
58929;BMP180;44713;53.378;10.022;2023-03-01T05:18:22;102756.00;;;-1.70
58929;BMP180;44713;53.378;10.022;2023-03-01T05:20:54;102759.00;;;-1.60
58929;BMP180;44713;53.378;10.022;2023-03-01T05:23:24;102753.00;;;-1.50
58929;BMP180;44713;53.378;10.022;2023-03-01T05:25:50;102765.00;;;-1.50
58929;BMP180;44713;53.378;10.022;2023-03-01T05:28:18;102764.00;;;-1.50
58929;BMP180;44713;53.378;10.022;2023-03-01T05:30:45;102762.00;;;-1.50
58929;BMP180;44713;53.378;10.022;2023-03-01T05:33:11;102768.00;;;-1.40
58929;BMP180;44713;53.378;10.022;2023-03-01T05:35:42;102764.00;;;-1.40
58929;BMP180;44713;53.378;10.022;2023-03-01T05:38:12;102765.00;;;-1.30
58929;BMP180;44713;53.378;10.022;2023-03-01T05:40:45;102756.00;;;-1.30
58929;BMP180;44713;53.378;10.022;2023-03-01T05:43:12;102751.00;;;-1.30
58929;BMP180;44713;53.378;10.022;2023-03-01T05:45:38;102756.00;;;-1.30
58929;BMP180;44713;53.378;10.022;2023-03-01T05:48:05;102762.00;;;-1.30
58929;BMP180;44713;53.378;10.022;2023-03-01T05:50:34;102753.00;;;-1.20
58929;BMP180;44713;53.378;10.022;2023-03-01T05:53:19;102752.00;;;-1.20
58929;BMP180;44713;53.378;10.022;2023-03-01T05:55:48;102753.00;;;-1.20
58929;BMP180;44713;53.378;10.022;2023-03-01T05:58:17;102760.00;;;-1.20
58929;BMP180;44713;53.378;10.022;2023-03-01T06:00:44;102750.00;;;-1.10
58929;BMP180;44713;53.378;10.022;2023-03-01T06:03:11;102758.00;;;-1.00
58929;BMP180;44713;53.378;10.022;2023-03-01T06:05:37;102752.00;;;-1.00
58929;BMP180;44713;53.378;10.022;2023-03-01T06:08:02;102744.00;;;-1.00
58929;BMP180;44713;53.378;10.022;2023-03-01T06:10:28;102753.00;;;-1.00
58929;BMP180;44713;53.378;10.022;2023-03-01T06:12:54;102755.00;;;-0.90
58929;BMP180;44713;53.378;10.022;2023-03-01T06:15:20;102748.00;;;-0.90
58929;BMP180;44713;53.378;10.022;2023-03-01T06:17:46;102747.00;;;-0.90
58929;BMP180;44713;53.378;10.022;2023-03-01T06:20:20;102735.00;;;-0.90
58929;BMP180;44713;53.378;10.022;2023-03-01T06:22:46;102744.00;;;-0.90
58929;BMP180;44713;53.378;10.022;2023-03-01T06:25:14;102732.00;;;-0.90
58929;BMP180;44713;53.378;10.022;2023-03-01T06:27:40;102736.00;;;-0.80
58929;BMP180;44713;53.378;10.022;2023-03-01T06:30:07;102721.00;;;-0.90
58929;BMP180;44713;53.378;10.022;2023-03-01T06:32:35;102726.00;;;-0.80
58929;BMP180;44713;53.378;10.022;2023-03-01T06:35:00;102721.00;;;-0.70
58929;BMP180;44713;53.378;10.022;2023-03-01T06:37:26;102731.00;;;-0.60
58929;BMP180;44713;53.378;10.022;2023-03-01T06:39:51;102735.00;;;-0.60
58929;BMP180;44713;53.378;10.022;2023-03-01T06:42:17;102738.00;;;-0.60
58929;BMP180;44713;53.378;10.022;2023-03-01T06:44:43;102742.00;;;-0.60
58929;BMP180;44713;53.378;10.022;2023-03-01T06:47:09;102731.00;;;-0.60
58929;BMP180;44713;53.378;10.022;2023-03-01T06:49:34;102731.00;;;-0.60
58929;BMP180;44713;53.378;10.022;2023-03-01T06:51:59;102731.00;;;-0.60
58929;BMP180;44713;53.378;10.022;2023-03-01T06:54:25;102722.00;;;-0.40
58929;BMP180;44713;53.378;10.022;2023-03-01T06:56:50;102727.00;;;-0.40
58929;BMP180;44713;53.378;10.022;2023-03-01T06:59:16;102733.00;;;-0.30
58929;BMP180;44713;53.378;10.022;2023-03-01T07:01:42;102737.00;;;-0.30
58929;BMP180;44713;53.378;10.022;2023-03-01T07:04:09;102733.00;;;-0.20
58929;BMP180;44713;53.378;10.022;2023-03-01T07:06:34;102732.00;;;-0.20
58929;BMP180;44713;53.378;10.022;2023-03-01T07:09:00;102740.00;;;-0.20
58929;BMP180;44713;53.378;10.022;2023-03-01T07:11:25;102746.00;;;-0.20
58929;BMP180;44713;53.378;10.022;2023-03-01T07:13:51;102748.00;;;-0.20
58929;BMP180;44713;53.378;10.022;2023-03-01T07:16:16;102743.00;;;-0.10
58929;BMP180;44713;53.378;10.022;2023-03-01T07:18:41;102737.00;;;-0.10
58929;BMP180;44713;53.378;10.022;2023-03-01T07:21:09;102735.00;;;-0.10
58929;BMP180;44713;53.378;10.022;2023-03-01T07:23:34;102737.00;;;-0.10
58929;BMP180;44713;53.378;10.022;2023-03-01T07:26:00;102736.00;;;0.00
58929;BMP180;44713;53.378;10.022;2023-03-01T07:28:26;102728.00;;;0.00
58929;BMP180;44713;53.378;10.022;2023-03-01T07:30:52;102727.00;;;0.00
58929;BMP180;44713;53.378;10.022;2023-03-01T07:33:18;102738.00;;;0.00
58929;BMP180;44713;53.378;10.022;2023-03-01T07:35:43;102730.00;;;0.00
58929;BMP180;44713;53.378;10.022;2023-03-01T07:38:09;102723.00;;;0.10
58929;BMP180;44713;53.378;10.022;2023-03-01T07:40:34;102723.00;;;0.10
58929;BMP180;44713;53.378;10.022;2023-03-01T07:43:00;102728.00;;;0.20
58929;BMP180;44713;53.378;10.022;2023-03-01T07:45:29;102721.00;;;0.20
58929;BMP180;44713;53.378;10.022;2023-03-01T07:47:55;102728.00;;;0.20
58929;BMP180;44713;53.378;10.022;2023-03-01T07:50:21;102735.00;;;0.30
58929;BMP180;44713;53.378;10.022;2023-03-01T07:52:47;102734.00;;;0.40
58929;BMP180;44713;53.378;10.022;2023-03-01T07:55:13;102734.00;;;0.50
58929;BMP180;44713;53.378;10.022;2023-03-01T07:57:39;102733.00;;;0.60
58929;BMP180;44713;53.378;10.022;2023-03-01T08:00:05;102736.00;;;0.60
58929;BMP180;44713;53.378;10.022;2023-03-01T08:02:37;102734.00;;;0.60
58929;BMP180;44713;53.378;10.022;2023-03-01T08:05:03;102731.00;;;0.80
58929;BMP180;44713;53.378;10.022;2023-03-01T08:07:28;102737.00;;;0.80
58929;BMP180;44713;53.378;10.022;2023-03-01T08:09:54;102739.00;;;0.90
58929;BMP180;44713;53.378;10.022;2023-03-01T08:12:19;102735.00;;;1.00
58929;BMP180;44713;53.378;10.022;2023-03-01T08:14:44;102731.00;;;1.00
58929;BMP180;44713;53.378;10.022;2023-03-01T08:17:10;102730.00;;;1.10
58929;BMP180;44713;53.378;10.022;2023-03-01T08:19:35;102730.00;;;1.20
58929;BMP180;44713;53.378;10.022;2023-03-01T08:22:01;102733.00;;;1.30
58929;BMP180;44713;53.378;10.022;2023-03-01T08:24:27;102727.00;;;1.40
58929;BMP180;44713;53.378;10.022;2023-03-01T08:26:53;102728.00;;;1.50
58929;BMP180;44713;53.378;10.022;2023-03-01T08:29:18;102726.00;;;1.50
58929;BMP180;44713;53.378;10.022;2023-03-01T08:31:44;102727.00;;;1.70
58929;BMP180;44713;53.378;10.022;2023-03-01T08:34:12;102720.00;;;1.80
58929;BMP180;44713;53.378;10.022;2023-03-01T08:36:40;102726.00;;;1.80
58929;BMP180;44713;53.378;10.022;2023-03-01T08:39:06;102717.00;;;1.90
58929;BMP180;44713;53.378;10.022;2023-03-01T08:41:33;102717.00;;;2.00
58929;BMP180;44713;53.378;10.022;2023-03-01T08:43:58;102706.00;;;2.20
58929;BMP180;44713;53.378;10.022;2023-03-01T08:46:28;102711.00;;;2.20
58929;BMP180;44713;53.378;10.022;2023-03-01T08:48:54;102710.00;;;2.30
58929;BMP180;44713;53.378;10.022;2023-03-01T08:51:20;102705.00;;;2.50
58929;BMP180;44713;53.378;10.022;2023-03-01T08:53:47;102706.00;;;2.70
58929;BMP180;44713;53.378;10.022;2023-03-01T08:56:13;102706.00;;;2.80
58929;BMP180;44713;53.378;10.022;2023-03-01T08:58:39;102704.00;;;2.90
58929;BMP180;44713;53.378;10.022;2023-03-01T09:01:13;102709.00;;;3.00
58929;BMP180;44713;53.378;10.022;2023-03-01T09:03:39;102701.00;;;3.10
58929;BMP180;44713;53.378;10.022;2023-03-01T09:06:06;102712.00;;;3.20
58929;BMP180;44713;53.378;10.022;2023-03-01T09:08:44;102715.00;;;3.30
58929;BMP180;44713;53.378;10.022;2023-03-01T09:11:11;102716.00;;;3.40
58929;BMP180;44713;53.378;10.022;2023-03-01T09:13:37;102706.00;;;3.60
58929;BMP180;44713;53.378;10.022;2023-03-01T09:16:04;102704.00;;;3.50
58929;BMP180;44713;53.378;10.022;2023-03-01T09:18:30;102707.00;;;3.70
58929;BMP180;44713;53.378;10.022;2023-03-01T09:21:08;102703.00;;;3.70
58929;BMP180;44713;53.378;10.022;2023-03-01T09:23:34;102694.00;;;3.80
58929;BMP180;44713;53.378;10.022;2023-03-01T09:26:01;102701.00;;;3.90
58929;BMP180;44713;53.378;10.022;2023-03-01T09:28:27;102701.00;;;3.90
58929;BMP180;44713;53.378;10.022;2023-03-01T09:30:52;102705.00;;;4.00
58929;BMP180;44713;53.378;10.022;2023-03-01T09:33:20;102710.00;;;4.10
58929;BMP180;44713;53.378;10.022;2023-03-01T09:35:45;102710.00;;;4.10
58929;BMP180;44713;53.378;10.022;2023-03-01T09:38:13;102710.00;;;4.20
58929;BMP180;44713;53.378;10.022;2023-03-01T09:40:42;102701.00;;;4.20
58929;BMP180;44713;53.378;10.022;2023-03-01T09:43:18;102712.00;;;4.30
58929;BMP180;44713;53.378;10.022;2023-03-01T09:45:46;102706.00;;;4.50
58929;BMP180;44713;53.378;10.022;2023-03-01T09:48:17;102704.00;;;4.60
58929;BMP180;44713;53.378;10.022;2023-03-01T09:50:44;102702.00;;;4.90
58929;BMP180;44713;53.378;10.022;2023-03-01T09:53:17;102704.00;;;5.10
58929;BMP180;44713;53.378;10.022;2023-03-01T09:55:46;102695.00;;;5.30
58929;BMP180;44713;53.378;10.022;2023-03-01T09:58:41;102698.00;;;5.40
58929;BMP180;44713;53.378;10.022;2023-03-01T10:06:44;102701.00;;;6.20
58929;BMP180;44713;53.378;10.022;2023-03-01T10:09:14;102697.00;;;6.00
58929;BMP180;44713;53.378;10.022;2023-03-01T10:11:48;102699.00;;;6.40
58929;BMP180;44713;53.378;10.022;2023-03-01T10:14:30;102694.00;;;6.50
58929;BMP180;44713;53.378;10.022;2023-03-01T10:17:01;102688.00;;;6.70
58929;BMP180;44713;53.378;10.022;2023-03-01T10:19:36;102681.00;;;6.90
58929;BMP180;44713;53.378;10.022;2023-03-01T10:22:13;102687.00;;;7.10
58929;BMP180;44713;53.378;10.022;2023-03-01T10:24:40;102681.00;;;7.20
58929;BMP180;44713;53.378;10.022;2023-03-01T10:27:57;102683.00;;;7.40
58929;BMP180;44713;53.378;10.022;2023-03-01T10:30:13;102681.00;;;7.50
58929;BMP180;44713;53.378;10.022;2023-03-01T10:32:42;102681.00;;;7.60
58929;BMP180;44713;53.378;10.022;2023-03-01T10:38:03;102677.00;;;7.80
58929;BMP180;44713;53.378;10.022;2023-03-01T10:40:29;102676.00;;;7.90
58929;BMP180;44713;53.378;10.022;2023-03-01T10:42:57;102682.00;;;7.90
58929;BMP180;44713;53.378;10.022;2023-03-01T10:45:31;102671.00;;;8.00
58929;BMP180;44713;53.378;10.022;2023-03-01T10:48:15;102669.00;;;8.10
58929;BMP180;44713;53.378;10.022;2023-03-01T10:50:45;102668.00;;;8.10
58929;BMP180;44713;53.378;10.022;2023-03-01T10:53:50;102669.00;;;8.40
58929;BMP180;44713;53.378;10.022;2023-03-01T10:56:16;102675.00;;;8.30
58929;BMP180;44713;53.378;10.022;2023-03-01T10:59:03;102683.00;;;8.30
58929;BMP180;44713;53.378;10.022;2023-03-01T11:01:34;102676.00;;;8.40
58929;BMP180;44713;53.378;10.022;2023-03-01T11:06:32;102677.00;;;8.40
58929;BMP180;44713;53.378;10.022;2023-03-01T11:11:41;102669.00;;;8.50
58929;BMP180;44713;53.378;10.022;2023-03-01T11:14:17;102663.00;;;8.70
58929;BMP180;44713;53.378;10.022;2023-03-01T11:16:48;102672.00;;;8.80
58929;BMP180;44713;53.378;10.022;2023-03-01T11:19:25;102670.00;;;8.80
58929;BMP180;44713;53.378;10.022;2023-03-01T11:22:07;102667.00;;;8.80
58929;BMP180;44713;53.378;10.022;2023-03-01T11:24:44;102662.00;;;8.80
58929;BMP180;44713;53.378;10.022;2023-03-01T11:27:31;102658.00;;;8.70
58929;BMP180;44713;53.378;10.022;2023-03-01T11:32:29;102649.00;;;8.70
58929;BMP180;44713;53.378;10.022;2023-03-01T11:35:09;102658.00;;;8.90
58929;BMP180;44713;53.378;10.022;2023-03-01T11:37:44;102656.00;;;9.10
58929;BMP180;44713;53.378;10.022;2023-03-01T11:40:25;102651.00;;;9.10
58929;BMP180;44713;53.378;10.022;2023-03-01T11:46:16;102649.00;;;9.70
58929;BMP180;44713;53.378;10.022;2023-03-01T11:51:59;102646.00;;;9.50
58929;BMP180;44713;53.378;10.022;2023-03-01T11:55:01;102641.00;;;9.60
58929;BMP180;44713;53.378;10.022;2023-03-01T12:05:54;102634.00;;;10.40
58929;BMP180;44713;53.378;10.022;2023-03-01T12:08:49;102627.00;;;10.50
58929;BMP180;44713;53.378;10.022;2023-03-01T12:11:56;102622.00;;;10.40
58929;BMP180;44713;53.378;10.022;2023-03-01T12:16:56;102613.00;;;10.50
58929;BMP180;44713;53.378;10.022;2023-03-01T12:20:35;102609.00;;;10.40
58929;BMP180;44713;53.378;10.022;2023-03-01T12:25:35;102614.00;;;10.30
58929;BMP180;44713;53.378;10.022;2023-03-01T12:47:58;102568.00;;;10.90
58929;BMP180;44713;53.378;10.022;2023-03-01T12:50:39;102572.00;;;11.00
58929;BMP180;44713;53.378;10.022;2023-03-01T12:53:07;102570.00;;;10.90
58929;BMP180;44713;53.378;10.022;2023-03-01T12:55:42;102563.00;;;10.70
58929;BMP180;44713;53.378;10.022;2023-03-01T12:58:23;102569.00;;;11.00
58929;BMP180;44713;53.378;10.022;2023-03-01T13:03:43;102567.00;;;11.10
58929;BMP180;44713;53.378;10.022;2023-03-01T13:06:35;102562.00;;;10.70
58929;BMP180;44713;53.378;10.022;2023-03-01T13:09:09;102565.00;;;10.90
58929;BMP180;44713;53.378;10.022;2023-03-01T13:11:35;102563.00;;;10.50
58929;BMP180;44713;53.378;10.022;2023-03-01T13:16:49;102551.00;;;10.60
58929;BMP180;44713;53.378;10.022;2023-03-01T13:21:46;102548.00;;;10.20
58929;BMP180;44713;53.378;10.022;2023-03-01T13:29:54;102545.00;;;10.80
58929;BMP180;44713;53.378;10.022;2023-03-01T13:32:25;102542.00;;;10.90
58929;BMP180;44713;53.378;10.022;2023-03-01T13:35:02;102548.00;;;10.90
58929;BMP180;44713;53.378;10.022;2023-03-01T13:37:35;102549.00;;;11.00
58929;BMP180;44713;53.378;10.022;2023-03-01T13:40:04;102543.00;;;10.80
58929;BMP180;44713;53.378;10.022;2023-03-01T13:42:32;102544.00;;;10.90
58929;BMP180;44713;53.378;10.022;2023-03-01T13:44:58;102539.00;;;10.80
58929;BMP180;44713;53.378;10.022;2023-03-01T13:47:24;102545.00;;;10.90
58929;BMP180;44713;53.378;10.022;2023-03-01T13:50:01;102535.00;;;10.90
58929;BMP180;44713;53.378;10.022;2023-03-01T13:52:35;102535.00;;;10.80
58929;BMP180;44713;53.378;10.022;2023-03-01T13:55:05;102539.00;;;10.10
58929;BMP180;44713;53.378;10.022;2023-03-01T13:57:36;102536.00;;;10.70
58929;BMP180;44713;53.378;10.022;2023-03-01T14:00:05;102530.00;;;10.70
58929;BMP180;44713;53.378;10.022;2023-03-01T14:02:30;102525.00;;;10.60
58929;BMP180;44713;53.378;10.022;2023-03-01T14:05:00;102521.00;;;10.80
58929;BMP180;44713;53.378;10.022;2023-03-01T14:07:27;102536.00;;;11.00
58929;BMP180;44713;53.378;10.022;2023-03-01T14:09:58;102526.00;;;10.90
58929;BMP180;44713;53.378;10.022;2023-03-01T14:12:39;102534.00;;;11.00
58929;BMP180;44713;53.378;10.022;2023-03-01T14:15:17;102524.00;;;11.10
58929;BMP180;44713;53.378;10.022;2023-03-01T14:17:54;102527.00;;;10.90
58929;BMP180;44713;53.378;10.022;2023-03-01T14:20:25;102518.00;;;10.90
58929;BMP180;44713;53.378;10.022;2023-03-01T14:22:54;102520.00;;;10.90
58929;BMP180;44713;53.378;10.022;2023-03-01T14:25:28;102509.00;;;11.20
58929;BMP180;44713;53.378;10.022;2023-03-01T14:30:43;102500.00;;;11.00
58929;BMP180;44713;53.378;10.022;2023-03-01T14:35:58;102501.00;;;11.00
58929;BMP180;44713;53.378;10.022;2023-03-01T14:38:30;102490.00;;;11.00
58929;BMP180;44713;53.378;10.022;2023-03-01T14:41:04;102495.00;;;11.00
58929;BMP180;44713;53.378;10.022;2023-03-01T14:43:30;102483.00;;;10.90
58929;BMP180;44713;53.378;10.022;2023-03-01T14:45:56;102486.00;;;10.90
58929;BMP180;44713;53.378;10.022;2023-03-01T14:48:23;102482.00;;;10.80
58929;BMP180;44713;53.378;10.022;2023-03-01T14:50:49;102476.00;;;10.80
58929;BMP180;44713;53.378;10.022;2023-03-01T14:53:27;102473.00;;;10.70
58929;BMP180;44713;53.378;10.022;2023-03-01T14:56:00;102468.00;;;10.80
58929;BMP180;44713;53.378;10.022;2023-03-01T14:58:32;102470.00;;;10.80
58929;BMP180;44713;53.378;10.022;2023-03-01T15:01:01;102472.00;;;10.70
58929;BMP180;44713;53.378;10.022;2023-03-01T15:05:55;102467.00;;;10.40
58929;BMP180;44713;53.378;10.022;2023-03-01T15:08:24;102459.00;;;9.80
58929;BMP180;44713;53.378;10.022;2023-03-01T15:13:26;102446.00;;;10.00
58929;BMP180;44713;53.378;10.022;2023-03-01T15:15:53;102452.00;;;10.00
58929;BMP180;44713;53.378;10.022;2023-03-01T15:18:27;102462.00;;;9.80
58929;BMP180;44713;53.378;10.022;2023-03-01T15:20:53;102450.00;;;9.90
58929;BMP180;44713;53.378;10.022;2023-03-01T15:23:28;102458.00;;;9.90
58929;BMP180;44713;53.378;10.022;2023-03-01T15:25:55;102458.00;;;9.80
58929;BMP180;44713;53.378;10.022;2023-03-01T15:28:30;102459.00;;;10.00
58929;BMP180;44713;53.378;10.022;2023-03-01T15:31:00;102454.00;;;9.90